sensor_id;sensor_type;location;lat;lon;timestamp;temperature;humidity
44223;DHT22;29895;48.804;9.386;2024-03-23T00:53:49;7.40;99.90
44223;DHT22;29895;48.804;9.386;2024-03-23T00:56:15;7.40;99.90
44223;DHT22;29895;48.804;9.386;2024-03-23T00:58:40;7.40;99.90
44223;DHT22;29895;48.804;9.386;2024-03-23T01:01:06;7.40;99.90
44223;DHT22;29895;48.804;9.386;2024-03-23T01:03:32;7.40;99.90
44223;DHT22;29895;48.804;9.386;2024-03-23T01:06:01;7.40;99.90
44223;DHT22;29895;48.804;9.386;2024-03-23T01:08:27;7.30;99.90
44223;DHT22;29895;48.804;9.386;2024-03-23T01:13:21;7.30;99.90
44223;DHT22;29895;48.804;9.386;2024-03-23T01:15:51;7.30;99.90
44223;DHT22;29895;48.804;9.386;2024-03-23T01:18:18;7.30;99.90
44223;DHT22;29895;48.804;9.386;2024-03-23T01:20:44;7.30;99.90
44223;DHT22;29895;48.804;9.386;2024-03-23T01:23:10;7.40;99.90
44223;DHT22;29895;48.804;9.386;2024-03-23T01:25:35;7.40;99.90
44223;DHT22;29895;48.804;9.386;2024-03-23T01:28:01;7.50;99.90
44223;DHT22;29895;48.804;9.386;2024-03-23T01:30:27;7.50;99.90
44223;DHT22;29895;48.804;9.386;2024-03-23T01:32:52;7.50;99.90
44223;DHT22;29895;48.804;9.386;2024-03-23T01:35:19;7.60;99.90
44223;DHT22;29895;48.804;9.386;2024-03-23T01:37:44;7.60;99.90
44223;DHT22;29895;48.804;9.386;2024-03-23T01:40:11;7.60;99.90
44223;DHT22;29895;48.804;9.386;2024-03-23T01:42:39;7.70;99.90
44223;DHT22;29895;48.804;9.386;2024-03-23T01:45:07;7.70;99.90
44223;DHT22;29895;48.804;9.386;2024-03-23T01:47:34;7.70;99.90
44223;DHT22;29895;48.804;9.386;2024-03-23T01:49:59;7.80;99.90
44223;DHT22;29895;48.804;9.386;2024-03-23T01:52:26;7.90;99.90
44223;DHT22;29895;48.804;9.386;2024-03-23T01:54:52;7.90;99.90
44223;DHT22;29895;48.804;9.386;2024-03-23T01:57:19;8.00;99.90
44223;DHT22;29895;48.804;9.386;2024-03-23T01:59:46;8.00;99.90
44223;DHT22;29895;48.804;9.386;2024-03-23T02:02:12;8.00;99.90
44223;DHT22;29895;48.804;9.386;2024-03-23T02:04:38;8.00;99.90
44223;DHT22;29895;48.804;9.386;2024-03-23T02:07:07;8.00;99.90
44223;DHT22;29895;48.804;9.386;2024-03-23T02:09:33;8.00;99.90
44223;DHT22;29895;48.804;9.386;2024-03-23T02:11:58;8.00;99.90
44223;DHT22;29895;48.804;9.386;2024-03-23T02:14:24;8.10;99.90
44223;DHT22;29895;48.804;9.386;2024-03-23T02:16:50;8.10;99.90
44223;DHT22;29895;48.804;9.386;2024-03-23T02:19:15;8.00;99.90
44223;DHT22;29895;48.804;9.386;2024-03-23T02:21:41;8.10;99.90
44223;DHT22;29895;48.804;9.386;2024-03-23T02:24:06;8.20;99.90
44223;DHT22;29895;48.804;9.386;2024-03-23T02:26:32;8.20;99.90
44223;DHT22;29895;48.804;9.386;2024-03-23T02:28:58;8.20;99.90
44223;DHT22;29895;48.804;9.386;2024-03-23T02:31:23;8.30;99.90
44223;DHT22;29895;48.804;9.386;2024-03-23T02:33:49;8.40;99.90
44223;DHT22;29895;48.804;9.386;2024-03-23T02:36:15;8.30;99.90
44223;DHT22;29895;48.804;9.386;2024-03-23T02:38:40;8.50;99.90
44223;DHT22;29895;48.804;9.386;2024-03-23T02:41:06;8.50;99.90
44223;DHT22;29895;48.804;9.386;2024-03-23T02:43:31;8.60;99.90
44223;DHT22;29895;48.804;9.386;2024-03-23T02:45:57;8.90;99.90
44223;DHT22;29895;48.804;9.386;2024-03-23T02:48:23;9.30;99.90
44223;DHT22;29895;48.804;9.386;2024-03-23T02:50:49;9.80;99.90
44223;DHT22;29895;48.804;9.386;2024-03-23T02:53:15;10.00;99.90
44223;DHT22;29895;48.804;9.386;2024-03-23T02:55:41;10.50;99.90
44223;DHT22;29895;48.804;9.386;2024-03-23T02:58:07;10.90;99.90
44223;DHT22;29895;48.804;9.386;2024-03-23T03:00:32;11.30;99.90
44223;DHT22;29895;48.804;9.386;2024-03-23T03:02:58;11.70;99.90
44223;DHT22;29895;48.804;9.386;2024-03-23T03:05:23;12.00;99.90
44223;DHT22;29895;48.804;9.386;2024-03-23T03:07:49;12.20;99.90
44223;DHT22;29895;48.804;9.386;2024-03-23T03:10:15;12.40;99.90
44223;DHT22;29895;48.804;9.386;2024-03-23T03:12:41;12.50;99.90
44223;DHT22;29895;48.804;9.386;2024-03-23T03:15:08;12.50;99.90
44223;DHT22;29895;48.804;9.386;2024-03-23T03:17:34;12.60;99.90
44223;DHT22;29895;48.804;9.386;2024-03-23T03:20:00;12.60;99.90
44223;DHT22;29895;48.804;9.386;2024-03-23T03:22:26;12.70;99.90
44223;DHT22;29895;48.804;9.386;2024-03-23T03:24:51;12.70;99.90
44223;DHT22;29895;48.804;9.386;2024-03-23T03:27:17;12.80;99.90
44223;DHT22;29895;48.804;9.386;2024-03-23T03:29:43;12.80;99.90
44223;DHT22;29895;48.804;9.386;2024-03-23T03:32:08;12.80;99.90
44223;DHT22;29895;48.804;9.386;2024-03-23T03:34:34;12.80;99.90
44223;DHT22;29895;48.804;9.386;2024-03-23T03:37:00;12.80;99.90
44223;DHT22;29895;48.804;9.386;2024-03-23T03:39:26;12.80;99.90
44223;DHT22;29895;48.804;9.386;2024-03-23T03:41:51;12.90;99.90
44223;DHT22;29895;48.804;9.386;2024-03-23T03:44:17;12.90;99.90
44223;DHT22;29895;48.804;9.386;2024-03-23T03:46:43;12.90;99.90
44223;DHT22;29895;48.804;9.386;2024-03-23T03:49:09;12.90;99.90
44223;DHT22;29895;48.804;9.386;2024-03-23T03:51:34;12.90;99.90
44223;DHT22;29895;48.804;9.386;2024-03-23T03:54:00;13.00;99.90
44223;DHT22;29895;48.804;9.386;2024-03-23T03:56:26;13.00;99.90
44223;DHT22;29895;48.804;9.386;2024-03-23T03:58:53;13.00;99.90
44223;DHT22;29895;48.804;9.386;2024-03-23T04:01:18;12.90;99.90
44223;DHT22;29895;48.804;9.386;2024-03-23T04:03:44;12.80;99.90
44223;DHT22;29895;48.804;9.386;2024-03-23T04:06:10;12.80;99.90
44223;DHT22;29895;48.804;9.386;2024-03-23T04:08:36;12.90;99.90
44223;DHT22;29895;48.804;9.386;2024-03-23T04:11:02;12.90;99.90
44223;DHT22;29895;48.804;9.386;2024-03-23T04:13:27;12.80;99.90
44223;DHT22;29895;48.804;9.386;2024-03-23T04:15:56;12.70;99.90
44223;DHT22;29895;48.804;9.386;2024-03-23T04:18:22;12.80;99.90
44223;DHT22;29895;48.804;9.386;2024-03-23T04:20:49;12.80;99.90
44223;DHT22;29895;48.804;9.386;2024-03-23T04:23:15;12.70;99.90
44223;DHT22;29895;48.804;9.386;2024-03-23T04:25:40;12.70;99.90
44223;DHT22;29895;48.804;9.386;2024-03-23T04:28:06;12.70;99.90
44223;DHT22;29895;48.804;9.386;2024-03-23T04:30:32;12.60;99.90
44223;DHT22;29895;48.804;9.386;2024-03-23T04:32:58;12.60;99.90
44223;DHT22;29895;48.804;9.386;2024-03-23T04:35:24;12.50;99.90
44223;DHT22;29895;48.804;9.386;2024-03-23T04:37:53;12.50;99.90
44223;DHT22;29895;48.804;9.386;2024-03-23T04:40:19;12.40;99.90
44223;DHT22;29895;48.804;9.386;2024-03-23T04:42:45;12.30;99.90
44223;DHT22;29895;48.804;9.386;2024-03-23T04:45:11;12.30;99.90
44223;DHT22;29895;48.804;9.386;2024-03-23T04:47:38;12.30;99.90
44223;DHT22;29895;48.804;9.386;2024-03-23T04:50:04;12.40;99.90
44223;DHT22;29895;48.804;9.386;2024-03-23T04:52:30;12.50;99.90
44223;DHT22;29895;48.804;9.386;2024-03-23T04:54:56;12.20;99.90
44223;DHT22;29895;48.804;9.386;2024-03-23T04:57:22;12.00;99.90
44223;DHT22;29895;48.804;9.386;2024-03-23T04:59:47;11.80;99.90
44223;DHT22;29895;48.804;9.386;2024-03-23T05:02:14;11.60;99.90
44223;DHT22;29895;48.804;9.386;2024-03-23T05:04:39;11.40;99.90
44223;DHT22;29895;48.804;9.386;2024-03-23T05:07:08;11.30;99.90
44223;DHT22;29895;48.804;9.386;2024-03-23T05:09:34;11.20;99.90
44223;DHT22;29895;48.804;9.386;2024-03-23T05:12:00;11.10;99.90
44223;DHT22;29895;48.804;9.386;2024-03-23T05:14:26;11.00;99.90
44223;DHT22;29895;48.804;9.386;2024-03-23T05:16:52;10.90;99.90
44223;DHT22;29895;48.804;9.386;2024-03-23T05:19:18;10.70;99.90
44223;DHT22;29895;48.804;9.386;2024-03-23T05:21:44;10.60;99.90
44223;DHT22;29895;48.804;9.386;2024-03-23T05:24:09;10.50;99.90
44223;DHT22;29895;48.804;9.386;2024-03-23T05:26:35;10.30;99.90
44223;DHT22;29895;48.804;9.386;2024-03-23T05:29:02;10.30;99.90
44223;DHT22;29895;48.804;9.386;2024-03-23T05:31:29;10.20;99.90
44223;DHT22;29895;48.804;9.386;2024-03-23T05:33:55;10.20;99.90
44223;DHT22;29895;48.804;9.386;2024-03-23T05:36:21;10.20;99.90
44223;DHT22;29895;48.804;9.386;2024-03-23T05:38:47;10.10;99.90
44223;DHT22;29895;48.804;9.386;2024-03-23T05:41:13;10.10;99.90
44223;DHT22;29895;48.804;9.386;2024-03-23T05:43:39;10.10;99.90
44223;DHT22;29895;48.804;9.386;2024-03-23T05:46:04;10.00;99.90
44223;DHT22;29895;48.804;9.386;2024-03-23T05:48:31;10.00;99.90
44223;DHT22;29895;48.804;9.386;2024-03-23T05:50:57;10.00;99.90
44223;DHT22;29895;48.804;9.386;2024-03-23T05:53:23;10.00;99.90
44223;DHT22;29895;48.804;9.386;2024-03-23T05:55:50;9.90;99.90
44223;DHT22;29895;48.804;9.386;2024-03-23T05:58:17;9.90;99.90
44223;DHT22;29895;48.804;9.386;2024-03-23T06:00:43;9.90;99.90
44223;DHT22;29895;48.804;9.386;2024-03-23T06:03:09;9.90;99.90
44223;DHT22;29895;48.804;9.386;2024-03-23T06:05:36;9.90;99.90
44223;DHT22;29895;48.804;9.386;2024-03-23T06:08:02;9.90;99.90
44223;DHT22;29895;48.804;9.386;2024-03-23T06:10:28;9.90;99.90
44223;DHT22;29895;48.804;9.386;2024-03-23T06:12:53;9.90;99.90
44223;DHT22;29895;48.804;9.386;2024-03-23T06:15:20;9.80;99.90
44223;DHT22;29895;48.804;9.386;2024-03-23T06:17:46;9.80;99.90
44223;DHT22;29895;48.804;9.386;2024-03-23T06:20:12;9.80;99.90
44223;DHT22;29895;48.804;9.386;2024-03-23T06:22:38;9.70;99.90
44223;DHT22;29895;48.804;9.386;2024-03-23T06:25:04;9.60;99.90
44223;DHT22;29895;48.804;9.386;2024-03-23T06:27:30;9.50;99.90
44223;DHT22;29895;48.804;9.386;2024-03-23T06:29:57;9.50;99.90
44223;DHT22;29895;48.804;9.386;2024-03-23T06:32:23;9.40;99.90
44223;DHT22;29895;48.804;9.386;2024-03-23T06:34:49;9.40;99.90
44223;DHT22;29895;48.804;9.386;2024-03-23T06:37:14;9.50;99.90
44223;DHT22;29895;48.804;9.386;2024-03-23T06:39:40;9.40;99.90
44223;DHT22;29895;48.804;9.386;2024-03-23T06:42:06;9.40;99.90
44223;DHT22;29895;48.804;9.386;2024-03-23T06:44:33;9.40;99.90
44223;DHT22;29895;48.804;9.386;2024-03-23T06:46:59;9.40;99.90
44223;DHT22;29895;48.804;9.386;2024-03-23T06:49:24;9.40;99.90
44223;DHT22;29895;48.804;9.386;2024-03-23T06:51:50;9.30;99.90
44223;DHT22;29895;48.804;9.386;2024-03-23T06:54:19;9.30;99.90
44223;DHT22;29895;48.804;9.386;2024-03-23T06:56:45;9.40;99.90
44223;DHT22;29895;48.804;9.386;2024-03-23T06:59:11;9.40;99.90
44223;DHT22;29895;48.804;9.386;2024-03-23T07:01:37;9.50;99.90
44223;DHT22;29895;48.804;9.386;2024-03-23T07:04:02;9.50;99.90
44223;DHT22;29895;48.804;9.386;2024-03-23T07:06:32;9.50;99.90
44223;DHT22;29895;48.804;9.386;2024-03-23T07:08:58;9.50;99.90
44223;DHT22;29895;48.804;9.386;2024-03-23T07:11:24;9.50;99.90
44223;DHT22;29895;48.804;9.386;2024-03-23T07:13:50;9.50;99.90
44223;DHT22;29895;48.804;9.386;2024-03-23T07:16:16;9.50;99.90
44223;DHT22;29895;48.804;9.386;2024-03-23T07:18:42;9.60;99.90
44223;DHT22;29895;48.804;9.386;2024-03-23T07:21:08;9.70;99.90
44223;DHT22;29895;48.804;9.386;2024-03-23T07:23:34;9.70;99.90
44223;DHT22;29895;48.804;9.386;2024-03-23T07:26:04;9.70;99.90
44223;DHT22;29895;48.804;9.386;2024-03-23T07:28:30;9.60;99.90
44223;DHT22;29895;48.804;9.386;2024-03-23T07:31:13;9.60;99.90
44223;DHT22;29895;48.804;9.386;2024-03-23T07:33:47;9.60;99.90
44223;DHT22;29895;48.804;9.386;2024-03-23T07:36:14;9.60;99.90
44223;DHT22;29895;48.804;9.386;2024-03-23T07:38:43;9.60;99.90
44223;DHT22;29895;48.804;9.386;2024-03-23T07:41:15;9.50;99.90
44223;DHT22;29895;48.804;9.386;2024-03-23T07:43:44;9.60;99.90
44223;DHT22;29895;48.804;9.386;2024-03-23T07:46:10;9.60;99.90
44223;DHT22;29895;48.804;9.386;2024-03-23T07:48:38;9.70;99.90
44223;DHT22;29895;48.804;9.386;2024-03-23T07:51:04;9.70;99.90
44223;DHT22;29895;48.804;9.386;2024-03-23T07:53:31;9.70;99.90
44223;DHT22;29895;48.804;9.386;2024-03-23T07:55:59;9.80;99.90
44223;DHT22;29895;48.804;9.386;2024-03-23T07:58:25;9.70;99.90
44223;DHT22;29895;48.804;9.386;2024-03-23T08:00:55;9.80;99.90
44223;DHT22;29895;48.804;9.386;2024-03-23T08:03:21;9.70;99.90
44223;DHT22;29895;48.804;9.386;2024-03-23T08:05:47;9.70;99.90
44223;DHT22;29895;48.804;9.386;2024-03-23T08:08:13;9.50;99.90
44223;DHT22;29895;48.804;9.386;2024-03-23T08:10:49;9.40;99.90
44223;DHT22;29895;48.804;9.386;2024-03-23T08:13:15;9.40;99.90
44223;DHT22;29895;48.804;9.386;2024-03-23T08:15:40;9.30;99.90
44223;DHT22;29895;48.804;9.386;2024-03-23T08:18:06;9.30;99.90
44223;DHT22;29895;48.804;9.386;2024-03-23T08:20:32;9.30;99.90
44223;DHT22;29895;48.804;9.386;2024-03-23T08:23:00;9.20;99.90
44223;DHT22;29895;48.804;9.386;2024-03-23T08:25:26;9.00;99.90
44223;DHT22;29895;48.804;9.386;2024-03-23T08:27:52;9.00;99.90
44223;DHT22;29895;48.804;9.386;2024-03-23T08:30:17;9.20;99.90
44223;DHT22;29895;48.804;9.386;2024-03-23T08:32:44;9.50;99.90
44223;DHT22;29895;48.804;9.386;2024-03-23T08:35:09;9.60;99.90
44223;DHT22;29895;48.804;9.386;2024-03-23T08:37:35;9.50;99.90
44223;DHT22;29895;48.804;9.386;2024-03-23T08:40:01;9.30;99.90
44223;DHT22;29895;48.804;9.386;2024-03-23T08:42:26;9.30;99.90
44223;DHT22;29895;48.804;9.386;2024-03-23T08:44:52;9.20;99.90
44223;DHT22;29895;48.804;9.386;2024-03-23T08:47:17;9.10;99.90
44223;DHT22;29895;48.804;9.386;2024-03-23T08:49:44;9.20;99.90
44223;DHT22;29895;48.804;9.386;2024-03-23T08:52:10;9.10;99.90
44223;DHT22;29895;48.804;9.386;2024-03-23T08:54:36;9.00;99.90
44223;DHT22;29895;48.804;9.386;2024-03-23T08:57:01;9.00;99.90
44223;DHT22;29895;48.804;9.386;2024-03-23T08:59:27;9.20;99.90
44223;DHT22;29895;48.804;9.386;2024-03-23T09:01:53;9.40;99.90
44223;DHT22;29895;48.804;9.386;2024-03-23T09:04:19;9.60;99.90
44223;DHT22;29895;48.804;9.386;2024-03-23T09:06:45;9.60;99.90
44223;DHT22;29895;48.804;9.386;2024-03-23T09:09:11;9.70;99.90
44223;DHT22;29895;48.804;9.386;2024-03-23T09:11:36;9.50;99.90
44223;DHT22;29895;48.804;9.386;2024-03-23T09:14:03;9.30;99.90
44223;DHT22;29895;48.804;9.386;2024-03-23T09:16:29;9.20;99.90
44223;DHT22;29895;48.804;9.386;2024-03-23T09:18:54;9.10;99.90
44223;DHT22;29895;48.804;9.386;2024-03-23T09:21:20;9.10;99.90
44223;DHT22;29895;48.804;9.386;2024-03-23T09:23:46;9.10;99.90
44223;DHT22;29895;48.804;9.386;2024-03-23T09:26:12;8.90;99.90
44223;DHT22;29895;48.804;9.386;2024-03-23T09:28:38;9.00;99.90
44223;DHT22;29895;48.804;9.386;2024-03-23T09:31:07;9.10;99.90
44223;DHT22;29895;48.804;9.386;2024-03-23T09:33:34;9.20;99.90
44223;DHT22;29895;48.804;9.386;2024-03-23T09:36:08;9.10;99.90
44223;DHT22;29895;48.804;9.386;2024-03-23T09:38:34;9.00;99.90
44223;DHT22;29895;48.804;9.386;2024-03-23T09:41:00;9.20;99.90
44223;DHT22;29895;48.804;9.386;2024-03-23T09:43:26;9.30;99.90
44223;DHT22;29895;48.804;9.386;2024-03-23T09:45:52;9.60;99.90
44223;DHT22;29895;48.804;9.386;2024-03-23T09:48:19;9.70;99.90
44223;DHT22;29895;48.804;9.386;2024-03-23T09:50:45;9.80;99.90
44223;DHT22;29895;48.804;9.386;2024-03-23T09:53:13;9.80;99.90
44223;DHT22;29895;48.804;9.386;2024-03-23T09:55:43;9.90;99.90
44223;DHT22;29895;48.804;9.386;2024-03-23T09:58:12;9.90;99.90
44223;DHT22;29895;48.804;9.386;2024-03-23T10:00:38;10.00;99.90
44223;DHT22;29895;48.804;9.386;2024-03-23T10:03:04;10.00;99.90
44223;DHT22;29895;48.804;9.386;2024-03-23T10:05:32;10.00;99.90
44223;DHT22;29895;48.804;9.386;2024-03-23T10:08:00;9.90;99.90
44223;DHT22;29895;48.804;9.386;2024-03-23T10:10:26;9.80;99.90
44223;DHT22;29895;48.804;9.386;2024-03-23T10:12:52;9.70;99.90
44223;DHT22;29895;48.804;9.386;2024-03-23T10:17:44;9.60;99.90
44223;DHT22;29895;48.804;9.386;2024-03-23T10:20:10;9.60;99.90
44223;DHT22;29895;48.804;9.386;2024-03-23T10:22:38;9.50;99.90
44223;DHT22;29895;48.804;9.386;2024-03-23T10:25:10;9.40;99.90
44223;DHT22;29895;48.804;9.386;2024-03-23T10:27:36;9.40;99.90
44223;DHT22;29895;48.804;9.386;2024-03-23T10:30:14;9.40;99.90
44223;DHT22;29895;48.804;9.386;2024-03-23T10:32:40;9.70;99.90
44223;DHT22;29895;48.804;9.386;2024-03-23T10:35:18;10.00;99.90
44223;DHT22;29895;48.804;9.386;2024-03-23T10:37:45;10.40;99.90
44223;DHT22;29895;48.804;9.386;2024-03-23T10:40:13;10.80;99.90
44223;DHT22;29895;48.804;9.386;2024-03-23T10:42:39;11.10;99.90
44223;DHT22;29895;48.804;9.386;2024-03-23T10:45:06;11.20;99.90
44223;DHT22;29895;48.804;9.386;2024-03-23T10:47:33;11.40;99.90
44223;DHT22;29895;48.804;9.386;2024-03-23T10:49:59;11.30;99.90
44223;DHT22;29895;48.804;9.386;2024-03-23T10:52:25;11.00;99.90
44223;DHT22;29895;48.804;9.386;2024-03-23T10:54:54;10.60;99.90
44223;DHT22;29895;48.804;9.386;2024-03-23T10:57:23;10.40;99.90
44223;DHT22;29895;48.804;9.386;2024-03-23T10:59:51;10.10;99.90
44223;DHT22;29895;48.804;9.386;2024-03-23T11:02:21;10.00;99.90
44223;DHT22;29895;48.804;9.386;2024-03-23T11:04:47;9.90;99.90
44223;DHT22;29895;48.804;9.386;2024-03-23T11:07:28;9.80;99.90
44223;DHT22;29895;48.804;9.386;2024-03-23T11:09:54;9.40;99.90
44223;DHT22;29895;48.804;9.386;2024-03-23T11:17:23;6.20;99.90
44223;DHT22;29895;48.804;9.386;2024-03-23T11:20:00;6.30;99.90
44223;DHT22;29895;48.804;9.386;2024-03-23T11:22:46;6.40;99.90
44223;DHT22;29895;48.804;9.386;2024-03-23T11:25:22;6.30;99.90
44223;DHT22;29895;48.804;9.386;2024-03-23T11:27:53;6.40;99.90
44223;DHT22;29895;48.804;9.386;2024-03-23T11:30:20;6.60;99.90
44223;DHT22;29895;48.804;9.386;2024-03-23T11:32:48;6.70;99.90
44223;DHT22;29895;48.804;9.386;2024-03-23T11:35:33;6.90;99.90
44223;DHT22;29895;48.804;9.386;2024-03-23T11:38:15;7.30;99.90
44223;DHT22;29895;48.804;9.386;2024-03-23T11:40:52;7.50;99.90
44223;DHT22;29895;48.804;9.386;2024-03-23T11:43:19;7.80;99.90
44223;DHT22;29895;48.804;9.386;2024-03-23T11:45:47;8.10;99.90
44223;DHT22;29895;48.804;9.386;2024-03-23T11:48:14;8.40;99.90
44223;DHT22;29895;48.804;9.386;2024-03-23T11:50:42;8.60;99.90
44223;DHT22;29895;48.804;9.386;2024-03-23T11:55:47;9.00;99.90
44223;DHT22;29895;48.804;9.386;2024-03-23T11:58:13;9.30;99.90
44223;DHT22;29895;48.804;9.386;2024-03-23T12:00:40;9.40;99.90
44223;DHT22;29895;48.804;9.386;2024-03-23T12:03:06;9.70;99.90
44223;DHT22;29895;48.804;9.386;2024-03-23T12:05:32;10.00;99.90
44223;DHT22;29895;48.804;9.386;2024-03-23T12:08:18;10.00;99.90
44223;DHT22;29895;48.804;9.386;2024-03-23T12:10:47;10.10;99.90
44223;DHT22;29895;48.804;9.386;2024-03-23T12:13:18;10.30;99.90
44223;DHT22;29895;48.804;9.386;2024-03-23T12:15:49;10.30;99.90
44223;DHT22;29895;48.804;9.386;2024-03-23T12:18:15;10.10;99.90
44223;DHT22;29895;48.804;9.386;2024-03-23T12:20:41;9.90;99.90
44223;DHT22;29895;48.804;9.386;2024-03-23T12:23:08;9.80;99.90
44223;DHT22;29895;48.804;9.386;2024-03-23T12:25:35;9.70;99.90
44223;DHT22;29895;48.804;9.386;2024-03-23T12:28:02;9.60;99.90
44223;DHT22;29895;48.804;9.386;2024-03-23T12:30:27;9.50;99.90
44223;DHT22;29895;48.804;9.386;2024-03-23T12:32:53;9.50;99.90
44223;DHT22;29895;48.804;9.386;2024-03-23T12:35:19;9.50;99.90
44223;DHT22;29895;48.804;9.386;2024-03-23T12:37:45;9.50;99.90
44223;DHT22;29895;48.804;9.386;2024-03-23T12:40:10;9.50;99.90
44223;DHT22;29895;48.804;9.386;2024-03-23T12:42:36;9.50;99.90
44223;DHT22;29895;48.804;9.386;2024-03-23T12:45:02;9.60;99.90
44223;DHT22;29895;48.804;9.386;2024-03-23T12:47:30;9.50;99.90
44223;DHT22;29895;48.804;9.386;2024-03-23T12:49:56;9.50;99.90
44223;DHT22;29895;48.804;9.386;2024-03-23T12:52:21;9.50;99.90
44223;DHT22;29895;48.804;9.386;2024-03-23T12:54:49;9.50;99.90
44223;DHT22;29895;48.804;9.386;2024-03-23T12:57:15;9.60;99.90
44223;DHT22;29895;48.804;9.386;2024-03-23T12:59:41;9.60;99.90
44223;DHT22;29895;48.804;9.386;2024-03-23T13:02:06;9.70;99.90
44223;DHT22;29895;48.804;9.386;2024-03-23T13:04:32;9.70;99.90
44223;DHT22;29895;48.804;9.386;2024-03-23T13:06:58;9.70;99.90
44223;DHT22;29895;48.804;9.386;2024-03-23T13:09:24;9.70;99.90
44223;DHT22;29895;48.804;9.386;2024-03-23T13:11:49;9.80;99.90
44223;DHT22;29895;48.804;9.386;2024-03-23T13:14:15;9.80;99.90
44223;DHT22;29895;48.804;9.386;2024-03-23T13:16:42;10.00;99.90
44223;DHT22;29895;48.804;9.386;2024-03-23T13:19:08;10.30;99.90
44223;DHT22;29895;48.804;9.386;2024-03-23T13:21:33;10.80;99.90
44223;DHT22;29895;48.804;9.386;2024-03-23T13:23:59;11.10;99.90
44223;DHT22;29895;48.804;9.386;2024-03-23T13:26:24;11.10;99.90
44223;DHT22;29895;48.804;9.386;2024-03-23T13:28:50;11.20;99.90
44223;DHT22;29895;48.804;9.386;2024-03-23T13:31:16;11.20;99.90
44223;DHT22;29895;48.804;9.386;2024-03-23T13:33:41;11.20;99.90
44223;DHT22;29895;48.804;9.386;2024-03-23T13:36:09;11.10;99.90
44223;DHT22;29895;48.804;9.386;2024-03-23T13:38:35;11.20;99.90
44223;DHT22;29895;48.804;9.386;2024-03-23T13:41:01;11.40;99.90
44223;DHT22;29895;48.804;9.386;2024-03-23T13:43:27;11.70;99.90
44223;DHT22;29895;48.804;9.386;2024-03-23T13:45:55;11.80;99.90
44223;DHT22;29895;48.804;9.386;2024-03-23T13:48:25;11.70;99.90
44223;DHT22;29895;48.804;9.386;2024-03-23T13:51:02;11.50;99.90
44223;DHT22;29895;48.804;9.386;2024-03-23T13:53:28;11.40;99.90
44223;DHT22;29895;48.804;9.386;2024-03-23T13:55:54;11.50;99.90
44223;DHT22;29895;48.804;9.386;2024-03-23T13:58:20;11.40;99.90
44223;DHT22;29895;48.804;9.386;2024-03-23T14:00:46;11.40;99.90
44223;DHT22;29895;48.804;9.386;2024-03-23T14:03:13;11.50;99.90
44223;DHT22;29895;48.804;9.386;2024-03-23T14:05:39;11.50;99.90
44223;DHT22;29895;48.804;9.386;2024-03-23T14:08:09;11.60;99.90
44223;DHT22;29895;48.804;9.386;2024-03-23T14:10:35;11.60;99.90
44223;DHT22;29895;48.804;9.386;2024-03-23T14:13:02;11.50;99.90
44223;DHT22;29895;48.804;9.386;2024-03-23T14:15:29;10.80;99.90
44223;DHT22;29895;48.804;9.386;2024-03-23T14:17:55;9.40;99.90
44223;DHT22;29895;48.804;9.386;2024-03-23T14:20:22;8.70;99.90
44223;DHT22;29895;48.804;9.386;2024-03-23T14:22:48;8.10;99.90
44223;DHT22;29895;48.804;9.386;2024-03-23T14:25:14;7.70;99.90
44223;DHT22;29895;48.804;9.386;2024-03-23T14:27:40;7.50;99.90
44223;DHT22;29895;48.804;9.386;2024-03-23T14:30:06;7.10;99.90
44223;DHT22;29895;48.804;9.386;2024-03-23T14:32:32;6.80;99.90
44223;DHT22;29895;48.804;9.386;2024-03-23T14:35:06;6.40;99.90
44223;DHT22;29895;48.804;9.386;2024-03-23T14:37:37;6.00;99.90
44223;DHT22;29895;48.804;9.386;2024-03-23T14:40:03;5.80;99.90
44223;DHT22;29895;48.804;9.386;2024-03-23T14:42:29;5.80;99.90
44223;DHT22;29895;48.804;9.386;2024-03-23T14:44:56;5.90;99.90
44223;DHT22;29895;48.804;9.386;2024-03-23T14:47:22;6.20;99.90
44223;DHT22;29895;48.804;9.386;2024-03-23T14:49:48;6.60;99.90
44223;DHT22;29895;48.804;9.386;2024-03-23T14:52:16;6.90;99.90
44223;DHT22;29895;48.804;9.386;2024-03-23T14:54:42;7.00;99.90
44223;DHT22;29895;48.804;9.386;2024-03-23T14:57:07;7.10;99.90
44223;DHT22;29895;48.804;9.386;2024-03-23T14:59:37;7.10;99.90
44223;DHT22;29895;48.804;9.386;2024-03-23T15:02:04;7.10;99.90
44223;DHT22;29895;48.804;9.386;2024-03-23T15:04:30;7.10;99.90
44223;DHT22;29895;48.804;9.386;2024-03-23T15:06:55;7.10;99.90
44223;DHT22;29895;48.804;9.386;2024-03-23T15:09:21;7.10;99.90
44223;DHT22;29895;48.804;9.386;2024-03-23T15:11:47;7.20;99.90
44223;DHT22;29895;48.804;9.386;2024-03-23T15:14:12;7.30;99.90
44223;DHT22;29895;48.804;9.386;2024-03-23T15:16:38;7.40;99.90
44223;DHT22;29895;48.804;9.386;2024-03-23T15:19:04;7.60;99.90
44223;DHT22;29895;48.804;9.386;2024-03-23T15:21:31;7.70;99.90
44223;DHT22;29895;48.804;9.386;2024-03-23T15:23:57;8.00;99.90
44223;DHT22;29895;48.804;9.386;2024-03-23T15:26:23;8.20;99.90
44223;DHT22;29895;48.804;9.386;2024-03-23T15:28:49;8.40;99.90
44223;DHT22;29895;48.804;9.386;2024-03-23T15:31:24;8.30;99.90
44223;DHT22;29895;48.804;9.386;2024-03-23T15:33:50;8.20;99.90
44223;DHT22;29895;48.804;9.386;2024-03-23T15:36:16;8.00;99.90
44223;DHT22;29895;48.804;9.386;2024-03-23T15:38:44;7.90;99.90
44223;DHT22;29895;48.804;9.386;2024-03-23T15:41:10;7.80;99.90
44223;DHT22;29895;48.804;9.386;2024-03-23T15:43:36;7.70;99.90
44223;DHT22;29895;48.804;9.386;2024-03-23T15:46:04;7.70;99.90
44223;DHT22;29895;48.804;9.386;2024-03-23T15:48:31;7.70;99.90
44223;DHT22;29895;48.804;9.386;2024-03-23T15:50:59;7.70;99.90
44223;DHT22;29895;48.804;9.386;2024-03-23T15:53:26;7.70;99.90
44223;DHT22;29895;48.804;9.386;2024-03-23T15:56:00;7.60;99.90
44223;DHT22;29895;48.804;9.386;2024-03-23T15:58:26;7.60;99.90
44223;DHT22;29895;48.804;9.386;2024-03-23T16:01:00;7.70;99.90
44223;DHT22;29895;48.804;9.386;2024-03-23T16:03:27;7.80;99.90
44223;DHT22;29895;48.804;9.386;2024-03-23T16:05:59;8.00;99.90
44223;DHT22;29895;48.804;9.386;2024-03-23T16:08:25;8.20;99.90
44223;DHT22;29895;48.804;9.386;2024-03-23T16:10:52;8.20;99.90
44223;DHT22;29895;48.804;9.386;2024-03-23T16:13:18;8.20;99.90
44223;DHT22;29895;48.804;9.386;2024-03-23T16:15:44;8.10;99.90
44223;DHT22;29895;48.804;9.386;2024-03-23T16:18:11;8.10;99.90
44223;DHT22;29895;48.804;9.386;2024-03-23T16:20:36;8.10;99.90
44223;DHT22;29895;48.804;9.386;2024-03-23T16:23:05;8.10;99.90
44223;DHT22;29895;48.804;9.386;2024-03-23T16:25:31;8.20;99.90
44223;DHT22;29895;48.804;9.386;2024-03-23T16:27:57;8.20;99.90
44223;DHT22;29895;48.804;9.386;2024-03-23T16:30:22;8.20;99.90
44223;DHT22;29895;48.804;9.386;2024-03-23T16:32:48;8.20;99.90
44223;DHT22;29895;48.804;9.386;2024-03-23T16:35:14;8.20;99.90
44223;DHT22;29895;48.804;9.386;2024-03-23T16:37:41;8.20;99.90
44223;DHT22;29895;48.804;9.386;2024-03-23T16:40:07;8.10;99.90
44223;DHT22;29895;48.804;9.386;2024-03-23T16:42:35;8.00;99.90
44223;DHT22;29895;48.804;9.386;2024-03-23T16:45:01;7.90;99.90